sensor_id;sensor_type;location;lat;lon;timestamp;P1;durP1;ratioP1;P2;durP2;ratioP2
17886;SDS011;9069;52.044;7.472;2023-02-21T00:01:35;43.33;;;23.08;;
17886;SDS011;9069;52.044;7.472;2023-02-21T00:04:21;40.95;;;22.88;;
17886;SDS011;9069;52.044;7.472;2023-02-21T00:07:07;48.75;;;24.27;;
17886;SDS011;9069;52.044;7.472;2023-02-21T00:09:52;45.53;;;22.05;;
17886;SDS011;9069;52.044;7.472;2023-02-21T00:12:37;41.90;;;21.52;;
17886;SDS011;9069;52.044;7.472;2023-02-21T00:15:23;41.83;;;21.27;;
17886;SDS011;9069;52.044;7.472;2023-02-21T00:18:08;49.97;;;23.27;;
17886;SDS011;9069;52.044;7.472;2023-02-21T00:20:53;50.83;;;22.02;;
17886;SDS011;9069;52.044;7.472;2023-02-21T00:23:39;41.72;;;22.67;;
17886;SDS011;9069;52.044;7.472;2023-02-21T00:26:25;44.80;;;22.98;;
17886;SDS011;9069;52.044;7.472;2023-02-21T00:29:10;45.53;;;23.55;;
17886;SDS011;9069;52.044;7.472;2023-02-21T00:31:56;43.97;;;22.73;;
17886;SDS011;9069;52.044;7.472;2023-02-21T00:34:42;42.35;;;21.45;;
17886;SDS011;9069;52.044;7.472;2023-02-21T00:37:28;44.55;;;23.27;;
17886;SDS011;9069;52.044;7.472;2023-02-21T00:40:13;39.58;;;20.52;;
17886;SDS011;9069;52.044;7.472;2023-02-21T00:42:59;41.55;;;22.40;;
17886;SDS011;9069;52.044;7.472;2023-02-21T00:45:45;44.83;;;21.92;;
17886;SDS011;9069;52.044;7.472;2023-02-21T00:48:31;43.08;;;20.80;;
17886;SDS011;9069;52.044;7.472;2023-02-21T00:51:16;40.00;;;21.25;;
17886;SDS011;9069;52.044;7.472;2023-02-21T00:54:02;43.10;;;21.55;;
17886;SDS011;9069;52.044;7.472;2023-02-21T00:56:47;42.67;;;22.35;;
17886;SDS011;9069;52.044;7.472;2023-02-21T00:59:32;39.45;;;20.17;;
17886;SDS011;9069;52.044;7.472;2023-02-21T01:02:17;46.58;;;23.08;;
17886;SDS011;9069;52.044;7.472;2023-02-21T01:05:03;44.85;;;22.73;;
17886;SDS011;9069;52.044;7.472;2023-02-21T01:07:48;44.15;;;21.80;;
17886;SDS011;9069;52.044;7.472;2023-02-21T01:10:33;40.75;;;21.80;;
17886;SDS011;9069;52.044;7.472;2023-02-21T01:13:19;39.75;;;21.40;;
17886;SDS011;9069;52.044;7.472;2023-02-21T01:16:05;41.88;;;21.42;;
17886;SDS011;9069;52.044;7.472;2023-02-21T01:18:51;42.50;;;22.73;;
17886;SDS011;9069;52.044;7.472;2023-02-21T01:21:36;45.38;;;21.98;;
17886;SDS011;9069;52.044;7.472;2023-02-21T01:24:22;43.75;;;22.23;;
17886;SDS011;9069;52.044;7.472;2023-02-21T01:27:07;40.65;;;20.73;;
17886;SDS011;9069;52.044;7.472;2023-02-21T01:29:52;45.80;;;22.92;;
17886;SDS011;9069;52.044;7.472;2023-02-21T01:32:38;45.05;;;22.20;;
17886;SDS011;9069;52.044;7.472;2023-02-21T01:35:24;46.65;;;21.98;;
17886;SDS011;9069;52.044;7.472;2023-02-21T01:38:10;41.78;;;21.13;;
17886;SDS011;9069;52.044;7.472;2023-02-21T01:40:57;45.22;;;22.83;;
17886;SDS011;9069;52.044;7.472;2023-02-21T01:47:26;40.03;;;20.65;;
17886;SDS011;9069;52.044;7.472;2023-02-21T01:53:14;45.45;;;21.92;;
17886;SDS011;9069;52.044;7.472;2023-02-21T01:56:03;39.72;;;22.17;;
17886;SDS011;9069;52.044;7.472;2023-02-21T01:58:50;41.63;;;21.92;;
17886;SDS011;9069;52.044;7.472;2023-02-21T02:01:39;45.75;;;22.38;;
17886;SDS011;9069;52.044;7.472;2023-02-21T02:04:42;46.33;;;21.33;;
17886;SDS011;9069;52.044;7.472;2023-02-21T02:07:30;44.33;;;23.38;;
17886;SDS011;9069;52.044;7.472;2023-02-21T02:10:16;41.03;;;22.58;;
17886;SDS011;9069;52.044;7.472;2023-02-21T02:25:10;47.58;;;23.05;;
17886;SDS011;9069;52.044;7.472;2023-02-21T02:27:50;42.90;;;22.35;;
17886;SDS011;9069;52.044;7.472;2023-02-21T02:37:04;45.67;;;21.80;;
17886;SDS011;9069;52.044;7.472;2023-02-21T02:41:57;36.28;;;20.40;;
17886;SDS011;9069;52.044;7.472;2023-02-21T02:44:49;38.97;;;20.40;;
17886;SDS011;9069;52.044;7.472;2023-02-21T02:47:23;42.30;;;20.58;;
17886;SDS011;9069;52.044;7.472;2023-02-21T02:49:54;39.13;;;20.88;;
17886;SDS011;9069;52.044;7.472;2023-02-21T02:52:24;39.10;;;20.75;;
17886;SDS011;9069;52.044;7.472;2023-02-21T02:55:01;40.17;;;21.35;;
17886;SDS011;9069;52.044;7.472;2023-02-21T02:57:31;37.65;;;20.27;;
17886;SDS011;9069;52.044;7.472;2023-02-21T03:00:06;38.80;;;20.88;;
17886;SDS011;9069;52.044;7.472;2023-02-21T03:02:37;37.60;;;20.88;;
17886;SDS011;9069;52.044;7.472;2023-02-21T03:07:55;38.17;;;19.23;;
17886;SDS011;9069;52.044;7.472;2023-02-21T03:10:39;36.38;;;19.00;;
17886;SDS011;9069;52.044;7.472;2023-02-21T03:13:17;36.97;;;19.77;;
17886;SDS011;9069;52.044;7.472;2023-02-21T03:16:02;38.83;;;19.35;;
17886;SDS011;9069;52.044;7.472;2023-02-21T03:21:48;37.25;;;19.98;;
17886;SDS011;9069;52.044;7.472;2023-02-21T03:24:16;36.95;;;20.88;;
17886;SDS011;9069;52.044;7.472;2023-02-21T03:26:46;38.05;;;20.48;;
17886;SDS011;9069;52.044;7.472;2023-02-21T03:29:40;36.97;;;19.73;;
17886;SDS011;9069;52.044;7.472;2023-02-21T03:32:10;44.35;;;20.70;;
17886;SDS011;9069;52.044;7.472;2023-02-21T03:35:11;36.42;;;20.10;;
17886;SDS011;9069;52.044;7.472;2023-02-21T03:37:41;38.05;;;20.67;;
17886;SDS011;9069;52.044;7.472;2023-02-21T03:40:12;40.55;;;20.95;;
17886;SDS011;9069;52.044;7.472;2023-02-21T03:42:46;36.78;;;20.48;;
17886;SDS011;9069;52.044;7.472;2023-02-21T03:45:15;40.28;;;19.70;;
17886;SDS011;9069;52.044;7.472;2023-02-21T03:47:50;40.20;;;21.85;;
17886;SDS011;9069;52.044;7.472;2023-02-21T03:50:17;42.35;;;21.88;;
17886;SDS011;9069;52.044;7.472;2023-02-21T03:52:44;42.33;;;20.58;;
17886;SDS011;9069;52.044;7.472;2023-02-21T03:55:14;38.95;;;20.70;;
17886;SDS011;9069;52.044;7.472;2023-02-21T03:57:42;36.20;;;20.27;;
17886;SDS011;9069;52.044;7.472;2023-02-21T04:00:09;38.70;;;21.17;;
17886;SDS011;9069;52.044;7.472;2023-02-21T04:02:40;41.60;;;20.70;;
17886;SDS011;9069;52.044;7.472;2023-02-21T04:05:11;40.15;;;20.70;;
17886;SDS011;9069;52.044;7.472;2023-02-21T04:07:38;45.58;;;21.98;;
17886;SDS011;9069;52.044;7.472;2023-02-21T04:10:05;37.95;;;20.95;;
17886;SDS011;9069;52.044;7.472;2023-02-21T04:12:38;39.80;;;21.10;;
17886;SDS011;9069;52.044;7.472;2023-02-21T04:15:05;41.15;;;21.40;;
17886;SDS011;9069;52.044;7.472;2023-02-21T04:17:33;42.03;;;22.05;;
17886;SDS011;9069;52.044;7.472;2023-02-21T04:20:02;35.53;;;19.23;;
17886;SDS011;9069;52.044;7.472;2023-02-21T04:22:32;40.40;;;21.52;;
17886;SDS011;9069;52.044;7.472;2023-02-21T04:24:59;41.28;;;21.33;;
17886;SDS011;9069;52.044;7.472;2023-02-21T04:27:28;40.67;;;21.75;;
17886;SDS011;9069;52.044;7.472;2023-02-21T04:29:56;45.15;;;22.17;;
17886;SDS011;9069;52.044;7.472;2023-02-21T04:32:23;44.38;;;21.27;;
17886;SDS011;9069;52.044;7.472;2023-02-21T04:34:50;43.85;;;22.50;;
17886;SDS011;9069;52.044;7.472;2023-02-21T04:37:17;46.20;;;21.98;;
17886;SDS011;9069;52.044;7.472;2023-02-21T04:39:44;44.58;;;20.85;;
17886;SDS011;9069;52.044;7.472;2023-02-21T04:42:13;41.50;;;21.25;;
17886;SDS011;9069;52.044;7.472;2023-02-21T04:44:40;43.80;;;22.55;;
17886;SDS011;9069;52.044;7.472;2023-02-21T04:47:14;39.47;;;21.50;;
17886;SDS011;9069;52.044;7.472;2023-02-21T04:49:41;39.75;;;20.27;;
17886;SDS011;9069;52.044;7.472;2023-02-21T04:52:07;43.97;;;21.35;;
17886;SDS011;9069;52.044;7.472;2023-02-21T04:54:34;42.50;;;21.38;;
17886;SDS011;9069;52.044;7.472;2023-02-21T04:57:01;45.03;;;22.00;;
17886;SDS011;9069;52.044;7.472;2023-02-21T04:59:27;42.80;;;21.27;;
17886;SDS011;9069;52.044;7.472;2023-02-21T05:01:54;45.05;;;22.70;;
17886;SDS011;9069;52.044;7.472;2023-02-21T05:04:21;44.50;;;22.23;;
17886;SDS011;9069;52.044;7.472;2023-02-21T05:06:47;43.80;;;22.05;;
17886;SDS011;9069;52.044;7.472;2023-02-21T05:09:14;46.17;;;23.63;;
17886;SDS011;9069;52.044;7.472;2023-02-21T05:11:41;47.50;;;21.85;;
17886;SDS011;9069;52.044;7.472;2023-02-21T05:14:07;45.78;;;23.48;;
17886;SDS011;9069;52.044;7.472;2023-02-21T05:16:34;48.25;;;22.52;;
17886;SDS011;9069;52.044;7.472;2023-02-21T05:19:01;45.70;;;22.45;;
17886;SDS011;9069;52.044;7.472;2023-02-21T05:21:28;44.45;;;21.58;;
17886;SDS011;9069;52.044;7.472;2023-02-21T05:23:59;48.72;;;23.25;;
17886;SDS011;9069;52.044;7.472;2023-02-21T05:26:26;50.80;;;23.40;;
17886;SDS011;9069;52.044;7.472;2023-02-21T05:28:58;47.42;;;22.08;;
17886;SDS011;9069;52.044;7.472;2023-02-21T05:31:25;46.28;;;21.30;;
17886;SDS011;9069;52.044;7.472;2023-02-21T05:33:52;46.15;;;21.67;;
17886;SDS011;9069;52.044;7.472;2023-02-21T05:36:19;46.53;;;22.23;;
17886;SDS011;9069;52.044;7.472;2023-02-21T05:38:47;42.08;;;20.88;;
17886;SDS011;9069;52.044;7.472;2023-02-21T05:41:16;49.42;;;22.15;;
17886;SDS011;9069;52.044;7.472;2023-02-21T05:43:44;48.78;;;21.92;;
17886;SDS011;9069;52.044;7.472;2023-02-21T05:46:19;45.28;;;21.65;;
17886;SDS011;9069;52.044;7.472;2023-02-21T05:48:48;50.20;;;21.67;;
17886;SDS011;9069;52.044;7.472;2023-02-21T05:51:15;45.00;;;21.77;;
17886;SDS011;9069;52.044;7.472;2023-02-21T05:53:42;44.42;;;21.50;;
17886;SDS011;9069;52.044;7.472;2023-02-21T05:56:09;47.78;;;21.50;;
17886;SDS011;9069;52.044;7.472;2023-02-21T05:58:36;44.00;;;21.42;;
17886;SDS011;9069;52.044;7.472;2023-02-21T06:01:03;49.42;;;22.17;;
17886;SDS011;9069;52.044;7.472;2023-02-21T06:03:30;40.88;;;20.67;;
17886;SDS011;9069;52.044;7.472;2023-02-21T06:05:58;42.85;;;20.65;;
17886;SDS011;9069;52.044;7.472;2023-02-21T06:08:25;46.85;;;21.63;;
17886;SDS011;9069;52.044;7.472;2023-02-21T06:10:51;44.78;;;21.23;;
17886;SDS011;9069;52.044;7.472;2023-02-21T06:13:18;41.38;;;19.10;;
17886;SDS011;9069;52.044;7.472;2023-02-21T06:15:45;40.03;;;20.25;;
17886;SDS011;9069;52.044;7.472;2023-02-21T06:18:12;42.65;;;20.35;;
17886;SDS011;9069;52.044;7.472;2023-02-21T06:20:40;37.05;;;18.88;;
17886;SDS011;9069;52.044;7.472;2023-02-21T06:23:07;39.83;;;18.02;;
17886;SDS011;9069;52.044;7.472;2023-02-21T06:25:34;35.83;;;17.63;;
17886;SDS011;9069;52.044;7.472;2023-02-21T06:28:01;33.42;;;18.02;;
17886;SDS011;9069;52.044;7.472;2023-02-21T06:30:27;36.30;;;16.67;;
17886;SDS011;9069;52.044;7.472;2023-02-21T06:32:54;37.03;;;16.38;;
17886;SDS011;9069;52.044;7.472;2023-02-21T06:35:21;29.83;;;15.52;;
17886;SDS011;9069;52.044;7.472;2023-02-21T06:37:48;31.60;;;15.85;;
17886;SDS011;9069;52.044;7.472;2023-02-21T06:40:14;33.72;;;15.65;;
17886;SDS011;9069;52.044;7.472;2023-02-21T06:42:41;30.27;;;15.25;;
17886;SDS011;9069;52.044;7.472;2023-02-21T06:45:08;28.70;;;14.23;;
17886;SDS011;9069;52.044;7.472;2023-02-21T06:47:34;29.90;;;15.25;;
17886;SDS011;9069;52.044;7.472;2023-02-21T06:50:01;31.85;;;14.68;;
17886;SDS011;9069;52.044;7.472;2023-02-21T06:52:29;32.28;;;14.93;;
17886;SDS011;9069;52.044;7.472;2023-02-21T06:54:57;26.90;;;13.55;;
17886;SDS011;9069;52.044;7.472;2023-02-21T06:57:24;27.92;;;13.40;;
17886;SDS011;9069;52.044;7.472;2023-02-21T06:59:51;29.85;;;15.15;;
17886;SDS011;9069;52.044;7.472;2023-02-21T07:02:18;27.42;;;14.05;;
17886;SDS011;9069;52.044;7.472;2023-02-21T07:04:45;32.85;;;15.40;;
17886;SDS011;9069;52.044;7.472;2023-02-21T07:07:13;28.13;;;14.35;;
17886;SDS011;9069;52.044;7.472;2023-02-21T07:09:39;29.70;;;14.38;;
17886;SDS011;9069;52.044;7.472;2023-02-21T07:12:06;29.35;;;14.43;;
17886;SDS011;9069;52.044;7.472;2023-02-21T07:14:34;31.58;;;15.02;;
17886;SDS011;9069;52.044;7.472;2023-02-21T07:17:00;37.83;;;15.63;;
17886;SDS011;9069;52.044;7.472;2023-02-21T07:19:27;31.08;;;14.93;;
17886;SDS011;9069;52.044;7.472;2023-02-21T07:21:54;30.27;;;15.88;;
17886;SDS011;9069;52.044;7.472;2023-02-21T07:24:21;32.60;;;15.43;;
17886;SDS011;9069;52.044;7.472;2023-02-21T07:26:47;35.72;;;17.33;;
17886;SDS011;9069;52.044;7.472;2023-02-21T07:29:14;40.45;;;17.40;;
17886;SDS011;9069;52.044;7.472;2023-02-21T07:31:42;35.95;;;17.55;;
17886;SDS011;9069;52.044;7.472;2023-02-21T07:34:09;37.30;;;19.30;;
17886;SDS011;9069;52.044;7.472;2023-02-21T07:36:37;38.85;;;18.23;;
17886;SDS011;9069;52.044;7.472;2023-02-21T07:39:05;42.70;;;18.63;;
17886;SDS011;9069;52.044;7.472;2023-02-21T07:41:32;42.35;;;19.13;;
17886;SDS011;9069;52.044;7.472;2023-02-21T07:43:59;40.85;;;19.42;;
17886;SDS011;9069;52.044;7.472;2023-02-21T07:46:26;49.47;;;20.83;;
17886;SDS011;9069;52.044;7.472;2023-02-21T07:48:53;48.10;;;20.20;;
17886;SDS011;9069;52.044;7.472;2023-02-21T07:51:20;46.33;;;20.80;;
17886;SDS011;9069;52.044;7.472;2023-02-21T07:53:47;58.17;;;23.20;;
17886;SDS011;9069;52.044;7.472;2023-02-21T07:56:14;55.72;;;22.80;;
17886;SDS011;9069;52.044;7.472;2023-02-21T07:58:41;50.42;;;21.08;;
17886;SDS011;9069;52.044;7.472;2023-02-21T08:01:07;57.40;;;22.98;;
17886;SDS011;9069;52.044;7.472;2023-02-21T08:03:34;51.17;;;23.02;;
17886;SDS011;9069;52.044;7.472;2023-02-21T08:06:02;53.50;;;21.75;;
17886;SDS011;9069;52.044;7.472;2023-02-21T08:08:30;60.47;;;22.88;;
17886;SDS011;9069;52.044;7.472;2023-02-21T08:10:56;52.35;;;21.63;;
17886;SDS011;9069;52.044;7.472;2023-02-21T08:13:23;49.58;;;20.98;;
17886;SDS011;9069;52.044;7.472;2023-02-21T08:15:50;54.42;;;21.45;;
17886;SDS011;9069;52.044;7.472;2023-02-21T08:18:18;50.65;;;21.08;;
17886;SDS011;9069;52.044;7.472;2023-02-21T08:20:52;46.85;;;20.27;;
17886;SDS011;9069;52.044;7.472;2023-02-21T08:23:20;53.67;;;22.02;;
17886;SDS011;9069;52.044;7.472;2023-02-21T08:25:47;47.58;;;20.83;;
17886;SDS011;9069;52.044;7.472;2023-02-21T08:28:14;47.28;;;21.00;;
17886;SDS011;9069;52.044;7.472;2023-02-21T08:30:41;55.42;;;21.83;;
17886;SDS011;9069;52.044;7.472;2023-02-21T08:33:08;47.22;;;19.92;;
17886;SDS011;9069;52.044;7.472;2023-02-21T08:35:35;50.63;;;20.23;;
17886;SDS011;9069;52.044;7.472;2023-02-21T08:38:02;52.25;;;22.42;;
17886;SDS011;9069;52.044;7.472;2023-02-21T08:40:30;46.72;;;20.92;;
17886;SDS011;9069;52.044;7.472;2023-02-21T08:42:57;51.67;;;21.70;;
17886;SDS011;9069;52.044;7.472;2023-02-21T08:45:26;41.35;;;18.98;;
17886;SDS011;9069;52.044;7.472;2023-02-21T08:47:54;41.45;;;18.88;;
17886;SDS011;9069;52.044;7.472;2023-02-21T08:50:22;48.67;;;20.40;;
17886;SDS011;9069;52.044;7.472;2023-02-21T08:52:51;51.97;;;20.25;;
17886;SDS011;9069;52.044;7.472;2023-02-21T08:55:18;44.60;;;18.98;;
17886;SDS011;9069;52.044;7.472;2023-02-21T08:57:49;41.53;;;18.38;;
17886;SDS011;9069;52.044;7.472;2023-02-21T09:00:18;45.70;;;19.73;;
17886;SDS011;9069;52.044;7.472;2023-02-21T09:02:51;46.92;;;20.48;;
17886;SDS011;9069;52.044;7.472;2023-02-21T09:05:19;49.05;;;20.60;;
17886;SDS011;9069;52.044;7.472;2023-02-21T09:07:50;47.53;;;19.67;;
17886;SDS011;9069;52.044;7.472;2023-02-21T09:10:20;49.15;;;19.23;;
17886;SDS011;9069;52.044;7.472;2023-02-21T09:12:47;46.75;;;20.38;;
17886;SDS011;9069;52.044;7.472;2023-02-21T09:15:14;44.90;;;19.48;;
17886;SDS011;9069;52.044;7.472;2023-02-21T09:17:41;49.05;;;18.77;;
17886;SDS011;9069;52.044;7.472;2023-02-21T09:20:09;41.65;;;18.98;;
17886;SDS011;9069;52.044;7.472;2023-02-21T09:22:37;45.85;;;19.52;;
17886;SDS011;9069;52.044;7.472;2023-02-21T09:25:03;38.58;;;17.20;;
17886;SDS011;9069;52.044;7.472;2023-02-21T09:27:32;39.97;;;18.00;;
17886;SDS011;9069;52.044;7.472;2023-02-21T09:30:06;40.63;;;18.63;;
17886;SDS011;9069;52.044;7.472;2023-02-21T09:32:44;41.03;;;17.90;;
17886;SDS011;9069;52.044;7.472;2023-02-21T09:35:12;46.17;;;19.02;;
17886;SDS011;9069;52.044;7.472;2023-02-21T09:37:39;35.03;;;15.77;;
17886;SDS011;9069;52.044;7.472;2023-02-21T09:40:31;39.08;;;18.00;;
17886;SDS011;9069;52.044;7.472;2023-02-21T09:43:13;37.08;;;17.08;;
17886;SDS011;9069;52.044;7.472;2023-02-21T09:45:44;32.63;;;16.05;;
17886;SDS011;9069;52.044;7.472;2023-02-21T09:48:13;34.47;;;15.85;;
17886;SDS011;9069;52.044;7.472;2023-02-21T09:50:44;32.85;;;15.55;;
17886;SDS011;9069;52.044;7.472;2023-02-21T09:53:15;35.78;;;15.35;;
17886;SDS011;9069;52.044;7.472;2023-02-21T09:55:45;34.17;;;16.05;;
17886;SDS011;9069;52.044;7.472;2023-02-21T09:58:17;33.85;;;15.48;;
17886;SDS011;9069;52.044;7.472;2023-02-21T10:00:44;33.22;;;14.68;;
17886;SDS011;9069;52.044;7.472;2023-02-21T10:03:23;30.52;;;14.98;;
17886;SDS011;9069;52.044;7.472;2023-02-21T10:08:49;33.45;;;15.40;;
17886;SDS011;9069;52.044;7.472;2023-02-21T10:11:24;28.42;;;14.73;;
17886;SDS011;9069;52.044;7.472;2023-02-21T10:16:39;29.60;;;14.43;;
17886;SDS011;9069;52.044;7.472;2023-02-21T10:21:46;32.92;;;14.45;;
17886;SDS011;9069;52.044;7.472;2023-02-21T10:24:16;28.45;;;14.23;;
17886;SDS011;9069;52.044;7.472;2023-02-21T10:26:47;30.67;;;14.40;;
17886;SDS011;9069;52.044;7.472;2023-02-21T10:29:41;28.60;;;13.27;;
17886;SDS011;9069;52.044;7.472;2023-02-21T10:32:21;25.38;;;13.18;;
17886;SDS011;9069;52.044;7.472;2023-02-21T10:34:50;26.05;;;12.35;;
17886;SDS011;9069;52.044;7.472;2023-02-21T10:37:39;28.45;;;13.13;;
17886;SDS011;9069;52.044;7.472;2023-02-21T10:45:38;28.05;;;12.75;;
17886;SDS011;9069;52.044;7.472;2023-02-21T10:48:08;30.42;;;13.05;;
17886;SDS011;9069;52.044;7.472;2023-02-21T10:50:52;25.63;;;12.50;;
17886;SDS011;9069;52.044;7.472;2023-02-21T10:53:53;24.60;;;11.43;;
17886;SDS011;9069;52.044;7.472;2023-02-21T10:56:40;25.48;;;11.90;;
17886;SDS011;9069;52.044;7.472;2023-02-21T10:59:07;26.15;;;12.50;;
17886;SDS011;9069;52.044;7.472;2023-02-21T11:01:41;23.17;;;12.23;;
17886;SDS011;9069;52.044;7.472;2023-02-21T11:06:49;27.05;;;12.43;;
17886;SDS011;9069;52.044;7.472;2023-02-21T11:09:38;26.60;;;12.38;;
17886;SDS011;9069;52.044;7.472;2023-02-21T11:17:18;26.70;;;12.70;;
17886;SDS011;9069;52.044;7.472;2023-02-21T11:22:37;28.50;;;12.55;;
17886;SDS011;9069;52.044;7.472;2023-02-21T11:25:14;27.40;;;12.27;;
17886;SDS011;9069;52.044;7.472;2023-02-21T11:27:44;24.63;;;11.82;;
17886;SDS011;9069;52.044;7.472;2023-02-21T11:33:31;27.20;;;12.93;;
17886;SDS011;9069;52.044;7.472;2023-02-21T11:36:16;24.05;;;11.05;;
17886;SDS011;9069;52.044;7.472;2023-02-21T11:38:57;22.48;;;11.57;;
17886;SDS011;9069;52.044;7.472;2023-02-21T11:44:01;22.92;;;11.90;;
17886;SDS011;9069;52.044;7.472;2023-02-21T11:49:16;22.23;;;11.00;;
17886;SDS011;9069;52.044;7.472;2023-02-21T11:52:07;21.17;;;9.68;;
17886;SDS011;9069;52.044;7.472;2023-02-21T11:54:37;17.00;;;8.68;;
17886;SDS011;9069;52.044;7.472;2023-02-21T11:59:43;17.77;;;8.65;;
17886;SDS011;9069;52.044;7.472;2023-02-21T12:05:48;15.20;;;7.65;;
17886;SDS011;9069;52.044;7.472;2023-02-21T12:08:26;17.08;;;8.20;;
17886;SDS011;9069;52.044;7.472;2023-02-21T12:14:54;13.30;;;6.13;;
17886;SDS011;9069;52.044;7.472;2023-02-21T12:17:47;13.98;;;6.82;;
17886;SDS011;9069;52.044;7.472;2023-02-21T12:35:03;13.85;;;5.97;;
17886;SDS011;9069;52.044;7.472;2023-02-21T12:40:46;11.38;;;5.72;;
17886;SDS011;9069;52.044;7.472;2023-02-21T12:46:15;10.05;;;5.90;;
17886;SDS011;9069;52.044;7.472;2023-02-21T12:49:03;13.60;;;5.90;;
17886;SDS011;9069;52.044;7.472;2023-02-21T12:52:03;11.93;;;6.15;;
17886;SDS011;9069;52.044;7.472;2023-02-21T12:55:05;10.18;;;5.45;;
17886;SDS011;9069;52.044;7.472;2023-02-21T13:05:56;12.80;;;5.82;;
17886;SDS011;9069;52.044;7.472;2023-02-21T13:08:29;10.43;;;5.50;;
17886;SDS011;9069;52.044;7.472;2023-02-21T13:11:11;10.75;;;5.80;;
17886;SDS011;9069;52.044;7.472;2023-02-21T13:13:44;9.00;;;5.47;;
17886;SDS011;9069;52.044;7.472;2023-02-21T13:16:11;12.32;;;6.63;;
17886;SDS011;9069;52.044;7.472;2023-02-21T13:18:41;10.35;;;5.80;;
17886;SDS011;9069;52.044;7.472;2023-02-21T13:23:53;12.73;;;8.00;;
17886;SDS011;9069;52.044;7.472;2023-02-21T13:29:31;15.57;;;7.75;;
17886;SDS011;9069;52.044;7.472;2023-02-21T13:32:12;16.52;;;7.10;;
17886;SDS011;9069;52.044;7.472;2023-02-21T13:34:46;13.73;;;6.47;;
17886;SDS011;9069;52.044;7.472;2023-02-21T13:37:23;11.30;;;6.18;;
17886;SDS011;9069;52.044;7.472;2023-02-21T13:39:54;11.38;;;6.10;;
17886;SDS011;9069;52.044;7.472;2023-02-21T13:42:27;11.48;;;5.95;;
17886;SDS011;9069;52.044;7.472;2023-02-21T13:45:14;10.80;;;6.40;;
17886;SDS011;9069;52.044;7.472;2023-02-21T13:53:02;10.48;;;5.75;;
17886;SDS011;9069;52.044;7.472;2023-02-21T14:01:16;9.52;;;5.88;;
17886;SDS011;9069;52.044;7.472;2023-02-21T14:03:43;11.43;;;6.25;;
17886;SDS011;9069;52.044;7.472;2023-02-21T14:08:43;12.82;;;6.55;;
17886;SDS011;9069;52.044;7.472;2023-02-21T14:11:20;10.07;;;5.68;;
17886;SDS011;9069;52.044;7.472;2023-02-21T14:13:56;10.80;;;6.18;;
17886;SDS011;9069;52.044;7.472;2023-02-21T14:16:32;11.77;;;6.20;;
17886;SDS011;9069;52.044;7.472;2023-02-21T14:21:38;10.57;;;5.63;;
17886;SDS011;9069;52.044;7.472;2023-02-21T14:26:37;13.15;;;6.10;;
17886;SDS011;9069;52.044;7.472;2023-02-21T14:31:49;11.23;;;6.75;;
17886;SDS011;9069;52.044;7.472;2023-02-21T15:02:27;12.38;;;5.68;;
17886;SDS011;9069;52.044;7.472;2023-02-21T15:05:05;12.98;;;6.47;;
17886;SDS011;9069;52.044;7.472;2023-02-21T15:10:23;10.57;;;6.40;;
17886;SDS011;9069;52.044;7.472;2023-02-21T15:13:05;13.90;;;7.30;;
17886;SDS011;9069;52.044;7.472;2023-02-21T15:15:38;10.48;;;6.32;;
17886;SDS011;9069;52.044;7.472;2023-02-21T15:18:08;10.20;;;6.35;;
17886;SDS011;9069;52.044;7.472;2023-02-21T15:20:37;10.05;;;5.85;;
17886;SDS011;9069;52.044;7.472;2023-02-21T15:25:37;9.63;;;6.00;;
17886;SDS011;9069;52.044;7.472;2023-02-21T15:28:06;11.55;;;7.15;;
17886;SDS011;9069;52.044;7.472;2023-02-21T15:30:53;9.70;;;5.50;;
17886;SDS011;9069;52.044;7.472;2023-02-21T15:33:32;12.05;;;6.35;;
17886;SDS011;9069;52.044;7.472;2023-02-21T15:36:02;18.50;;;6.68;;
17886;SDS011;9069;52.044;7.472;2023-02-21T15:41:14;12.48;;;5.93;;
17886;SDS011;9069;52.044;7.472;2023-02-21T15:46:36;9.23;;;6.03;;
17886;SDS011;9069;52.044;7.472;2023-02-21T15:49:14;10.85;;;6.35;;
17886;SDS011;9069;52.044;7.472;2023-02-21T15:51:46;12.00;;;7.88;;
17886;SDS011;9069;52.044;7.472;2023-02-21T15:56:42;14.68;;;7.53;;
17886;SDS011;9069;52.044;7.472;2023-02-21T15:59:18;11.38;;;6.70;;
17886;SDS011;9069;52.044;7.472;2023-02-21T16:02:05;12.02;;;6.65;;
17886;SDS011;9069;52.044;7.472;2023-02-21T16:04:36;12.07;;;7.30;;
17886;SDS011;9069;52.044;7.472;2023-02-21T16:07:05;11.57;;;6.55;;
17886;SDS011;9069;52.044;7.472;2023-02-21T16:09:39;10.55;;;6.15;;
17886;SDS011;9069;52.044;7.472;2023-02-21T16:14:37;12.77;;;7.35;;
17886;SDS011;9069;52.044;7.472;2023-02-21T16:17:32;12.63;;;7.72;;
17886;SDS011;9069;52.044;7.472;2023-02-21T16:22:38;13.13;;;7.13;;
17886;SDS011;9069;52.044;7.472;2023-02-21T16:25:26;13.10;;;7.40;;
17886;SDS011;9069;52.044;7.472;2023-02-21T16:27:54;11.32;;;7.20;;
17886;SDS011;9069;52.044;7.472;2023-02-21T16:30:32;13.10;;;8.02;;
17886;SDS011;9069;52.044;7.472;2023-02-21T16:33:01;13.43;;;8.05;;
17886;SDS011;9069;52.044;7.472;2023-02-21T16:35:30;15.13;;;9.60;;
17886;SDS011;9069;52.044;7.472;2023-02-21T16:37:58;16.42;;;10.48;;
17886;SDS011;9069;52.044;7.472;2023-02-21T16:40:26;18.08;;;11.07;;
17886;SDS011;9069;52.044;7.472;2023-02-21T16:42:56;16.33;;;10.55;;
17886;SDS011;9069;52.044;7.472;2023-02-21T16:45:24;20.65;;;11.93;;
17886;SDS011;9069;52.044;7.472;2023-02-21T16:50:31;24.35;;;14.85;;
17886;SDS011;9069;52.044;7.472;2023-02-21T16:53:01;16.80;;;10.88;;
17886;SDS011;9069;52.044;7.472;2023-02-21T16:55:28;16.33;;;10.95;;
17886;SDS011;9069;52.044;7.472;2023-02-21T16:57:57;21.42;;;13.48;;
17886;SDS011;9069;52.044;7.472;2023-02-21T17:00:27;26.98;;;19.10;;
17886;SDS011;9069;52.044;7.472;2023-02-21T17:02:55;24.75;;;16.17;;
17886;SDS011;9069;52.044;7.472;2023-02-21T17:05:22;19.85;;;12.75;;
17886;SDS011;9069;52.044;7.472;2023-02-21T17:07:52;19.67;;;11.85;;
17886;SDS011;9069;52.044;7.472;2023-02-21T17:10:20;21.73;;;11.95;;
17886;SDS011;9069;52.044;7.472;2023-02-21T17:12:47;21.63;;;11.15;;
17886;SDS011;9069;52.044;7.472;2023-02-21T17:15:15;18.65;;;11.07;;
17886;SDS011;9069;52.044;7.472;2023-02-21T17:17:41;21.80;;;12.45;;
17886;SDS011;9069;52.044;7.472;2023-02-21T17:20:17;25.38;;;14.05;;
17886;SDS011;9069;52.044;7.472;2023-02-21T17:22:45;27.05;;;14.93;;
17886;SDS011;9069;52.044;7.472;2023-02-21T17:25:13;26.35;;;15.25;;
17886;SDS011;9069;52.044;7.472;2023-02-21T17:27:41;26.48;;;14.05;;
17886;SDS011;9069;52.044;7.472;2023-02-21T17:30:08;25.00;;;13.32;;
17886;SDS011;9069;52.044;7.472;2023-02-21T17:32:35;25.48;;;13.63;;
17886;SDS011;9069;52.044;7.472;2023-02-21T17:35:03;21.85;;;12.40;;
17886;SDS011;9069;52.044;7.472;2023-02-21T17:37:30;24.92;;;11.85;;
17886;SDS011;9069;52.044;7.472;2023-02-21T17:39:57;17.77;;;10.90;;
17886;SDS011;9069;52.044;7.472;2023-02-21T17:42:23;19.65;;;10.77;;
17886;SDS011;9069;52.044;7.472;2023-02-21T17:44:50;17.08;;;9.98;;
17886;SDS011;9069;52.044;7.472;2023-02-21T17:47:19;20.52;;;10.25;;
17886;SDS011;9069;52.044;7.472;2023-02-21T17:49:47;17.25;;;10.48;;
17886;SDS011;9069;52.044;7.472;2023-02-21T17:52:15;18.67;;;9.93;;
17886;SDS011;9069;52.044;7.472;2023-02-21T17:54:42;18.90;;;10.73;;
17886;SDS011;9069;52.044;7.472;2023-02-21T17:57:09;24.67;;;12.93;;
17886;SDS011;9069;52.044;7.472;2023-02-21T17:59:36;29.52;;;14.25;;
17886;SDS011;9069;52.044;7.472;2023-02-21T18:02:04;26.65;;;14.20;;
17886;SDS011;9069;52.044;7.472;2023-02-21T18:04:33;21.83;;;11.73;;
17886;SDS011;9069;52.044;7.472;2023-02-21T18:06:59;20.98;;;11.10;;
17886;SDS011;9069;52.044;7.472;2023-02-21T18:09:26;20.10;;;11.20;;
17886;SDS011;9069;52.044;7.472;2023-02-21T18:11:54;19.30;;;10.93;;
17886;SDS011;9069;52.044;7.472;2023-02-21T18:14:22;22.15;;;12.43;;